Time,TemperatureF,DewpointF,PressureIn,WindDirection,WindDirectionDegrees,WindSpeedMPH,WindSpeedGustMPH,Humidity,HourlyPrecipIn,Conditions,Clouds,dailyrainin,SoftwareType,DateUTC
2013-04-05 00:13:00,16.1,3.1,30.11,NE,47,8.0,15.0,56,0.00,CLR,,0.00,WeatherDisplay:10.37,2013-04-05 08:13:00,
2013-04-05 00:28:00,16.2,3.6,30.11,NE,48,6.0,15.0,57,0.00,CLR,,0.00,WeatherDisplay:10.37,2013-04-05 08:28:00,
2013-04-05 00:43:00,16.2,3.6,30.10,NE,49,9.0,17.0,57,0.00,CLR,,0.00,WeatherDisplay:10.37,2013-04-05 08:43:00,
2013-04-05 00:58:00,16.1,3.5,30.10,NE,46,7.0,20.0,57,0.00,CLR,,0.00,WeatherDisplay:10.37,2013-04-05 08:58:00,
2013-04-05 01:13:00,15.9,3.7,30.09,NE,50,10.0,15.0,58,0.00,CLR,,0.00,WeatherDisplay:10.37,2013-04-05 09:13:00,
2013-04-05 01:28:00,15.7,3.5,30.09,NE,49,8.0,18.0,58,0.00,CLR,,0.00,WeatherDisplay:10.37,2013-04-05 09:28:00,
2013-04-05 01:43:00,15.6,3.4,30.09,NE,52,6.0,16.0,58,0.00,CLR,,0.00,WeatherDisplay:10.37,2013-04-05 09:43:00,
2013-04-05 01:58:00,15.3,3.1,30.08,NE,46,7.0,17.0,58,0.00,CLR,,0.00,WeatherDisplay:10.37,2013-04-05 09:58:00,
2013-04-05 02:13:00,15.1,3.0,30.08,NE,44,9.0,17.0,58,0.00,CLR,,0.00,WeatherDisplay:10.37,2013-04-05 10:13:00,
2013-04-05 02:28:00,15.1,2.6,30.08,NE,45,7.0,17.0,57,0.00,CLR,,0.00,WeatherDisplay:10.37,2013-04-05 10:28:00,
2013-04-05 02:43:00,14.8,1.9,30.07,NE,47,9.0,20.0,56,0.00,CLR,,0.00,WeatherDisplay:10.37,2013-04-05 10:43:00,
2013-04-05 02:58:00,14.6,1.4,30.07,NE,53,7.0,22.0,55,0.00,CLR,,0.00,WeatherDisplay:10.37,2013-04-05 10:58:00,
2013-04-05 03:13:00,14.2,0.6,30.06,NE,47,9.0,20.0,54,0.00,CLR,,0.00,WeatherDisplay:10.37,2013-04-05 11:13:00,
2013-04-05 03:28:00,14.1,0.1,30.06,NE,44,7.0,23.0,53,0.00,CLR,,0.00,WeatherDisplay:10.37,2013-04-05 11:28:00,
2013-04-05 03:43:00,13.8,-0.6,30.05,NE,44,10.0,18.0,52,0.00,CLR,,0.00,WeatherDisplay:10.37,2013-04-05 11:43:00,
2013-04-05 03:58:00,13.5,-0.9,30.05,NE,42,9.0,18.0,52,0.00,CLR,,0.00,WeatherDisplay:10.37,2013-04-05 11:58:00,
2013-04-05 04:13:00,13.5,-0.9,30.05,NE,46,10.0,20.0,52,0.00,CLR,,0.00,WeatherDisplay:10.37,2013-04-05 12:13:00,
2013-04-05 04:28:00,13.2,-1.1,30.04,NE,47,9.0,18.0,52,0.00,CLR,,0.00,WeatherDisplay:10.37,2013-04-05 12:28:00,
2013-04-05 04:43:00,12.9,-1.4,30.03,NE,49,10.0,18.0,52,0.00,CLR,,0.00,WeatherDisplay:10.37,2013-04-05 12:43:00,
2013-04-05 04:58:00,12.6,-1.7,30.03,NE,46,13.0,23.0,52,0.00,CLR,,0.00,WeatherDisplay:10.37,2013-04-05 12:58:00,
2013-04-05 05:13:00,12.4,-1.9,30.03,NE,51,8.0,20.0,52,0.00,CLR,,0.00,WeatherDisplay:10.37,2013-04-05 13:13:00,
2013-04-05 05:28:00,12.1,-2.2,30.02,NE,45,9.0,17.0,52,0.00,CLR,,0.00,WeatherDisplay:10.37,2013-04-05 13:28:00,
2013-04-05 05:43:00,12.1,-2.2,30.02,NE,45,9.0,20.0,52,0.00,CLR,,0.00,WeatherDisplay:10.37,2013-04-05 13:43:00,
2013-04-05 05:58:00,11.6,-2.6,30.01,NE,46,12.0,21.0,52,0.00,CLR,,0.00,WeatherDisplay:10.37,2013-04-05 13:58:00,
2013-04-05 06:13:00,11.1,-3.1,30.00,NE,45,13.0,23.0,52,0.00,CLR,,0.00,WeatherDisplay:10.37,2013-04-05 14:13:00,
2013-04-05 06:28:00,10.8,-3.4,30.00,NE,46,8.0,19.0,52,0.00,CLR,,0.00,WeatherDisplay:10.37,2013-04-05 14:28:00,
2013-04-05 06:43:00,10.7,-3.1,30.00,NE,47,10.0,20.0,53,0.00,CLR,,0.00,WeatherDisplay:10.37,2013-04-05 14:43:00,
2013-04-05 06:58:00,10.7,-3.5,30.00,NE,44,10.0,22.0,52,0.00,CLR,,0.00,WeatherDisplay:10.37,2013-04-05 14:58:00,
2013-04-05 07:13:00,10.6,-3.1,29.99,NE,43,10.0,18.0,53,0.00,CLR,,0.00,WeatherDisplay:10.37,2013-04-05 15:13:00,
2013-04-05 07:28:00,10.7,-3.1,29.99,NE,43,5.0,19.0,53,0.00,CLR,,0.00,WeatherDisplay:10.37,2013-04-05 15:28:00,
2013-04-05 07:43:00,10.7,-3.1,29.99,NE,45,7.0,22.0,53,0.00,CLR,,0.00,WeatherDisplay:10.37,2013-04-05 15:43:00,
2013-04-05 07:58:00,10.9,-2.9,29.98,NE,46,10.0,23.0,53,0.00,CLR,,0.00,WeatherDisplay:10.37,2013-04-05 15:58:00,
2013-04-05 08:13:00,11.0,-2.8,29.98,NE,44,9.0,21.0,53,0.00,CLR,,0.00,WeatherDisplay:10.37,2013-04-05 16:13:00,
2013-04-05 08:28:00,11.2,-2.2,29.97,NE,40,15.0,21.0,54,0.00,CLR,,0.00,WeatherDisplay:10.37,2013-04-05 16:28:00,
2013-04-05 08:43:00,11.5,-1.9,29.97,NE,43,15.0,25.0,54,0.00,CLR,,0.00,WeatherDisplay:10.37,2013-04-05 16:43:00,
2013-04-05 08:58:00,11.8,-2.5,29.97,NE,42,12.0,22.0,52,0.00,CLR,,0.00,WeatherDisplay:10.37,2013-04-05 16:58:00,
2013-04-05 09:13:00,11.8,-2.5,29.96,NE,46,15.0,26.0,52,0.00,CLR,,0.00,WeatherDisplay:10.37,2013-04-05 17:13:00,
2013-04-05 09:28:00,11.8,-2.8,29.96,NE,40,10.0,31.0,51,0.00,CLR,,0.00,WeatherDisplay:10.37,2013-04-05 17:28:00,
2013-04-05 09:43:00,12.1,-3.0,29.96,NE,37,12.0,26.0,50,0.00,CLR,,0.00,WeatherDisplay:10.37,2013-04-05 17:43:00,
2013-04-05 09:58:00,12.6,-2.6,29.96,NE,40,12.0,23.0,50,0.00,CLR,,0.00,WeatherDisplay:10.37,2013-04-05 17:58:00,
2013-04-05 10:13:00,12.5,-3.0,29.95,NE,35,12.0,23.0,49,0.00,CLR,,0.00,WeatherDisplay:10.37,2013-04-05 18:13:00,
2013-04-05 10:28:00,12.9,-2.7,29.95,NE,41,12.0,23.0,49,0.00,CLR,,0.00,WeatherDisplay:10.37,2013-04-05 18:28:00,
2013-04-05 10:43:00,13.4,-2.6,29.95,NE,37,13.0,22.0,48,0.00,CLR,,0.00,WeatherDisplay:10.37,2013-04-05 18:43:00,
2013-04-05 10:58:00,14.0,-2.2,29.95,NE,41,9.0,24.0,48,0.00,CLR,,0.00,WeatherDisplay:10.37,2013-04-05 18:58:00,
2013-04-05 11:15:00,14.5,-2.1,29.95,NE,46,8.0,20.0,47,0.00,CLR,,0.00,WeatherDisplay:10.37,2013-04-05 19:15:00,
2013-04-05 11:30:00,15.0,-1.6,29.94,NE,43,9.0,15.0,47,0.00,CLR,,0.00,WeatherDisplay:10.37,2013-04-05 19:30:00,
2013-04-05 11:45:00,15.1,-2.0,29.93,NE,37,10.0,17.0,46,0.00,CLR,,0.00,WeatherDisplay:10.37,2013-04-05 19:45:00,
2013-04-05 12:15:00,15.5,-2.1,29.93,NE,42,9.0,17.0,45,0.00,CLR,,0.00,WeatherDisplay:10.37,2013-04-05 20:15:00,
2013-04-05 12:30:00,15.8,-1.8,29.92,NE,40,10.0,17.0,45,0.00,CLR,,0.00,WeatherDisplay:10.37,2013-04-05 20:30:00,
2013-04-05 12:45:00,15.9,-1.7,29.92,NE,36,8.0,18.0,45,0.00,CLR,,0.00,WeatherDisplay:10.37,2013-04-05 20:45:00,
2013-04-05 13:00:00,16.3,-1.3,29.91,NE,43,10.0,20.0,45,0.00,CLR,,0.00,WeatherDisplay:10.37,2013-04-05 21:00:00,
2013-04-05 13:15:00,16.4,-1.3,29.91,NE,43,9.0,21.0,45,0.00,CLR,,0.00,WeatherDisplay:10.37,2013-04-05 21:15:00,
2013-04-05 13:30:00,16.4,-1.7,29.90,NE,40,10.0,17.0,44,0.00,CLR,,0.00,WeatherDisplay:10.37,2013-04-05 21:30:00,
2013-04-05 13:45:00,16.5,-1.2,29.90,NE,41,7.0,18.0,45,0.00,CLR,,0.00,WeatherDisplay:10.37,2013-04-05 21:45:00,
2013-04-05 14:00:00,17.1,-0.6,29.89,NE,43,9.0,15.0,45,0.00,CLR,,0.00,WeatherDisplay:10.37,2013-04-05 22:00:00,
2013-04-05 14:15:00,17.1,-1.1,29.88,NE,35,7.0,14.0,44,0.00,CLR,,0.00,WeatherDisplay:10.37,2013-04-05 22:15:00,
2013-04-05 14:30:00,17.4,-0.4,29.88,NE,43,7.0,15.0,45,0.00,CLR,,0.00,WeatherDisplay:10.37,2013-04-05 22:30:00,
2013-04-05 14:45:00,17.1,-1.1,29.87,NE,39,8.0,15.0,44,0.00,CLR,,0.00,WeatherDisplay:10.37,2013-04-05 22:45:00,
2013-04-05 15:00:00,16.9,-1.3,29.87,NE,35,8.0,15.0,44,0.00,CLR,,0.00,WeatherDisplay:10.37,2013-04-05 23:00:00,
2013-04-05 15:15:00,16.6,-1.1,29.86,NNE,26,7.0,14.0,45,0.00,CLR,,0.00,WeatherDisplay:10.37,2013-04-05 23:15:00,
2013-04-05 15:31:00,16.8,-0.9,29.86,NNE,27,7.0,12.0,45,0.00,CLR,,0.00,WeatherDisplay:10.37,2013-04-05 23:31:00,
2013-04-05 15:45:00,17.5,-0.2,29.85,NE,39,7.0,14.0,45,0.00,CLR,,0.00,WeatherDisplay:10.37,2013-04-05 23:45:00,
2013-04-05 16:00:00,17.3,-0.9,29.85,NE,40,6.0,14.0,44,0.00,CLR,,0.00,WeatherDisplay:10.37,2013-04-06 00:00:00,
2013-04-05 16:15:00,16.4,-1.7,29.84,NNE,25,6.0,11.0,44,0.00,CLR,,0.00,WeatherDisplay:10.37,2013-04-06 00:15:00,
2013-04-05 16:31:00,16.6,-1.1,29.84,NNE,13,8.0,14.0,45,0.00,CLR,,0.00,WeatherDisplay:10.37,2013-04-06 00:31:00,
2013-04-05 16:46:00,14.8,-2.3,29.83,North,6,7.0,10.0,46,0.00,CLR,,0.00,WeatherDisplay:10.37,2013-04-06 00:46:00,
2013-04-05 17:01:00,15.4,-2.2,29.83,North,10,6.0,15.0,45,0.00,CLR,,0.00,WeatherDisplay:10.37,2013-04-06 01:01:00,
2013-04-05 17:16:00,15.7,-1.5,29.83,NNE,12,7.0,9.0,46,0.00,CLR,,0.00,WeatherDisplay:10.37,2013-04-06 01:16:00,
2013-04-05 18:46:00,13.9,-2.2,29.76,NNE,16,5.0,8.0,48,0.00,CLR,,0.00,WeatherDisplay:10.37,2013-04-06 02:46:00,
2013-04-05 19:46:00,11.4,-4.1,29.77,North,352,2.0,8.0,49,0.00,CLR,,0.00,WeatherDisplay:10.37,2013-04-06 03:46:00,
2013-04-05 20:01:00,11.1,-4.4,29.76,North,2,3.0,7.0,49,0.00,CLR,,0.00,WeatherDisplay:10.37,2013-04-06 04:01:00,
2013-04-05 20:16:00,11.9,-3.2,29.76,NE,39,5.0,8.0,50,0.00,CLR,,0.00,WeatherDisplay:10.37,2013-04-06 04:16:00,
2013-04-05 20:31:00,11.3,-4.2,29.76,NE,48,5.0,10.0,49,0.00,CLR,,0.00,WeatherDisplay:10.37,2013-04-06 04:31:00,
2013-04-05 20:46:00,9.8,-5.5,29.76,NE,47,5.0,9.0,49,0.00,CLR,,0.00,WeatherDisplay:10.37,2013-04-06 04:46:00,
2013-04-05 21:01:00,8.9,-5.6,29.76,NE,43,6.0,10.0,51,0.00,CLR,,0.00,WeatherDisplay:10.37,2013-04-06 05:01:00,
2013-04-05 21:16:00,8.4,-5.6,29.77,NE,35,3.0,9.0,52,0.00,CLR,,0.00,WeatherDisplay:10.37,2013-04-06 05:16:00,
2013-04-05 21:31:00,7.7,-6.3,29.77,NNE,19,3.0,9.0,52,0.00,CLR,,0.00,WeatherDisplay:10.37,2013-04-06 05:31:00,
2013-04-05 21:46:00,6.9,-6.7,29.77,NNE,12,5.0,8.0,53,0.00,CLR,,0.00,WeatherDisplay:10.37,2013-04-06 05:46:00,
2013-04-05 22:01:00,6.0,-6.7,29.77,North,10,8.0,12.0,55,0.00,CLR,,0.00,WeatherDisplay:10.37,2013-04-06 06:01:00,
2013-04-05 22:16:00,5.6,-6.8,29.77,North,6,7.0,10.0,56,0.00,CLR,,0.00,WeatherDisplay:10.37,2013-04-06 06:16:00,
2013-04-05 22:32:00,5.4,-6.6,29.77,North,6,6.0,13.0,57,0.00,CLR,,0.00,WeatherDisplay:10.37,2013-04-06 06:32:00,
2013-04-05 22:47:00,4.9,-6.6,29.77,North,9,6.0,9.0,58,0.00,CLR,,0.00,WeatherDisplay:10.37,2013-04-06 06:47:00,
2013-04-05 23:02:00,4.7,-6.5,29.77,North,1,5.0,8.0,59,0.00,CLR,,0.00,WeatherDisplay:10.37,2013-04-06 07:02:00,
2013-04-05 23:17:00,4.8,-6.5,29.77,North,3,2.0,7.0,59,0.00,CLR,,0.00,WeatherDisplay:10.37,2013-04-06 07:17:00,
2013-04-05 23:32:00,4.6,-6.6,29.77,North,7,3.0,7.0,59,0.00,CLR,,0.00,WeatherDisplay:10.37,2013-04-06 07:32:00,
2013-04-05 23:47:00,4.5,-7.0,29.77,North,3,0.0,5.0,58,0.00,CLR,,0.00,WeatherDisplay:10.37,2013-04-06 07:47:00,